Pensacola, FL (32501)

12:31 PM CST on February 11, 2016 (GMT -0600)
east hills | | Change Station
CLOSE
Current Station
Personal Weather Station
Location: Pensacola, FL
Elevation: 60 ft
Nearby Weather Stations

Elev 60 ft 30.43 °N, 87.20 °W | Updated 8 seconds ago

Clear
Clear
69.8 °F
Feels Like 69.8 °F
N
4.7
Wind Variable Wind from SSW

Today
High -- | Low -- °F
--% Chance of Precip.
Yesterday
High -- | Low -- °F
Precip. -- in
Pressure 30.20 in
Visibility 10.0 miles
Clouds Clear
Dew Point 54 °F
Humidity 57%
Rainfall 0.00 in
Snow Depth Not available.
6:33 AM 5:33 PM
Waxing Crescent, 13% visible
METAR KPNS 111753Z 24013G23KT 10SM CLR 21/10 A3019 RMK AO2 SLP226 T02060100 10206 20056 58016
Pressure 30.20 in
Visibility 10.0 miles
Clouds Clear
Dew Point 54 °F
Humidity 57%
Rainfall 0.00 in
Snow Depth Not available.
6:33 AM 5:33 PM
Waxing Crescent, 13% visible
METAR KPNS 111753Z 24013G23KT 10SM CLR 21/10 A3019 RMK AO2 SLP226 T02060100 10206 20056 58016

10-Day Weather Forecast

Almanac

Astronomy

Feb. 11, 2016 Rise Set
Actual Time
Civil Twilight
Nautical Twilight
Astronomical Twilight
Moon
Length of Visible Light
Length of Day
Tomorrow will be .
, % of the Moon is Illuminated

Today's Extremes

State Highs State Lows

Community

WunderPhotos

Upload Photos

1,892,122 photos uploaded!

WunderBlog® & News

Nearby

Air Quality

  Air Quality AQ Index Pollutant
Not available.

Snow Depth

Station Depth Elevation

Earthquake Activity

City Distance Mag. Time & Date
Minimum magnitude displayed is 2.5.

Coastal Water Temperatures

Place Temperature

Stations

Nearby Weather Stations

Station Location Temp. Windchill Dew Point Humidity Wind Precip. Elev Updated Type
                   

Watches & Warnings

There are currently no watches in effect.